createdAt,value
2024-02-06T00:02:07.404Z,79.35
2024-02-06T00:04:37.246Z,79.09
2024-02-06T00:07:07.333Z,78.36
2024-02-06T00:09:38.923Z,79.17
2024-02-06T00:12:08.049Z,77.31
2024-02-06T00:14:35.475Z,77.28
2024-02-06T00:17:02.463Z,78.16
2024-02-06T00:19:29.313Z,79.24
2024-02-06T00:21:56.485Z,78.80
2024-02-06T00:24:23.372Z,78.45
2024-02-06T00:26:51.112Z,77.36
2024-02-06T00:29:18.938Z,78.31
2024-02-06T00:31:46.059Z,78.04
2024-02-06T00:34:13.018Z,79.80
2024-02-06T00:36:40.421Z,79.26
2024-02-06T00:39:07.266Z,77.85
2024-02-06T00:41:41.382Z,77.31
2024-02-06T00:44:10.160Z,78.17
2024-02-06T00:46:39.884Z,77.48
2024-02-06T00:49:09.923Z,78.57
2024-02-06T00:51:40.006Z,79.18
2024-02-06T00:54:07.214Z,78.89
2024-02-06T00:56:36.881Z,78.60
2024-02-06T00:59:04.726Z,79.22
2024-02-06T01:01:32.439Z,78.45
2024-02-06T01:03:59.424Z,78.37
2024-02-06T01:06:27.168Z,77.30
2024-02-06T01:08:54.331Z,77.58
2024-02-06T01:11:23.958Z,77.59
2024-02-06T01:14:00.755Z,78.04
2024-02-06T01:16:30.561Z,77.40
2024-02-06T01:18:58.870Z,77.86
2024-02-06T01:21:25.788Z,77.80
2024-02-06T01:23:52.649Z,78.72
2024-02-06T01:26:30.811Z,78.36
2024-02-06T01:28:57.828Z,77.17
2024-02-06T01:31:27.516Z,77.36
2024-02-06T01:33:59.623Z,77.87
2024-02-06T01:36:28.061Z,77.34
2024-02-06T01:38:55.171Z,77.33
2024-02-06T01:41:23.192Z,77.25
2024-02-06T01:43:50.107Z,76.78
2024-02-06T01:46:17.048Z,75.51
2024-02-06T01:48:44.968Z,74.04
2024-02-06T01:51:13.587Z,73.27
2024-02-06T01:53:41.811Z,75.56
2024-02-06T01:56:08.685Z,77.55
2024-02-06T01:58:35.872Z,78.29
2024-02-06T02:01:04.967Z,79.14
2024-02-06T02:03:35.938Z,79.48
2024-02-06T02:06:05.787Z,78.96
2024-02-06T02:08:34.616Z,78.57
2024-02-06T02:11:04.398Z,78.03
2024-02-06T02:13:35.694Z,77.45
2024-02-06T02:16:02.960Z,76.94
2024-02-06T02:18:37.868Z,77.11
2024-02-06T02:21:16.927Z,77.37
2024-02-06T02:23:47.158Z,76.61
2024-02-06T02:26:16.700Z,77.78
2024-02-06T02:28:46.382Z,77.97
2024-02-06T02:31:13.566Z,77.65
2024-02-06T02:33:40.438Z,78.65
2024-02-06T02:36:08.721Z,78.73
2024-02-06T02:38:38.697Z,78.98
2024-02-06T02:41:06.106Z,77.54
2024-02-06T02:43:33.504Z,77.78
2024-02-06T02:46:01.265Z,78.65
2024-02-06T02:48:28.691Z,79.48
2024-02-06T02:50:55.618Z,77.56
2024-02-06T02:53:25.524Z,77.28
2024-02-06T02:55:52.652Z,76.13
2024-02-06T02:58:19.731Z,77.92
2024-02-06T03:00:47.127Z,78.13
2024-02-06T03:03:14.022Z,76.65
2024-02-06T03:05:40.858Z,76.29
2024-02-06T03:08:07.929Z,75.43
2024-02-06T03:10:34.828Z,76.35
2024-02-06T03:13:02.103Z,76.57
2024-02-06T03:15:29.438Z,74.92
2024-02-06T03:17:58.608Z,76.28
2024-02-06T03:20:25.782Z,76.59
2024-02-06T03:22:52.992Z,76.23
2024-02-06T03:25:20.311Z,74.09
2024-02-06T03:27:48.168Z,74.62
2024-02-06T03:30:15.241Z,76.39
2024-02-06T03:32:43.513Z,75.93
2024-02-06T03:35:11.145Z,76.15
2024-02-06T03:37:38.584Z,77.44
2024-02-06T03:40:07.886Z,75.10
2024-02-06T03:42:34.762Z,75.61
2024-02-06T03:45:01.619Z,74.23
2024-02-06T03:47:31.244Z,74.51
2024-02-06T03:49:58.185Z,73.64
2024-02-06T03:52:25.441Z,74.54
2024-02-06T03:54:52.308Z,75.08
2024-02-06T03:57:21.430Z,73.48
2024-02-06T03:59:48.911Z,74.04
2024-02-06T04:02:20.082Z,74.85
2024-02-06T04:04:46.958Z,74.26
2024-02-06T04:07:14.558Z,74.16
2024-02-06T04:09:41.433Z,73.67
2024-02-06T04:12:08.893Z,74.59
2024-02-06T04:14:44.369Z,74.35
2024-02-06T04:17:11.589Z,73.89
2024-02-06T04:19:38.801Z,74.49
2024-02-06T04:22:06.153Z,72.72
2024-02-06T04:24:34.371Z,75.03
2024-02-06T04:27:01.264Z,74.06
2024-02-06T04:29:29.018Z,73.13
2024-02-06T04:31:56.184Z,73.60
2024-02-06T04:34:23.239Z,72.20
2024-02-06T04:36:50.444Z,71.35
2024-02-06T04:39:17.243Z,69.54
2024-02-06T04:41:44.418Z,68.67
2024-02-06T04:44:12.029Z,71.42
2024-02-06T04:46:41.931Z,71.48
2024-02-06T04:49:10.146Z,72.73
2024-02-06T04:51:38.183Z,73.35
2024-02-06T04:54:06.788Z,72.12
2024-02-06T04:56:36.438Z,71.18
2024-02-06T04:59:03.816Z,73.50
2024-02-06T05:01:31.497Z,72.72
2024-02-06T05:04:07.126Z,73.70
2024-02-06T05:06:34.457Z,71.25
2024-02-06T05:09:02.665Z,70.68
2024-02-06T05:11:30.454Z,70.42
2024-02-06T05:13:57.337Z,68.82
2024-02-06T05:16:24.634Z,72.36
2024-02-06T05:18:54.363Z,72.51
2024-02-06T05:21:22.501Z,71.87
2024-02-06T05:23:49.583Z,71.14
2024-02-06T05:26:16.374Z,71.66
2024-02-06T05:28:48.146Z,71.08
2024-02-06T05:31:15.591Z,71.76
2024-02-06T05:33:43.562Z,71.33
2024-02-06T05:36:10.619Z,70.67
2024-02-06T05:38:37.404Z,71.50
2024-02-06T05:41:05.039Z,70.86
2024-02-06T05:43:32.271Z,71.35
2024-02-06T05:46:02.039Z,72.31
2024-02-06T05:48:31.642Z,72.53
2024-02-06T05:51:00.262Z,73.34
2024-02-06T05:53:31.622Z,73.05
2024-02-06T05:55:59.462Z,71.12
2024-02-06T05:58:28.231Z,70.60
2024-02-06T06:00:58.195Z,72.97
2024-02-06T06:03:26.737Z,74.01
2024-02-06T06:05:54.190Z,72.48
2024-02-06T06:08:24.108Z,73.68
2024-02-06T06:10:53.702Z,73.45
2024-02-06T06:13:25.900Z,76.65
2024-02-06T06:15:53.233Z,74.87
2024-02-06T06:18:20.126Z,74.92
2024-02-06T06:20:47.404Z,76.45
2024-02-06T06:23:14.601Z,76.75
2024-02-06T06:25:41.684Z,76.61
2024-02-06T06:28:09.561Z,76.97
2024-02-06T06:30:36.855Z,75.84
2024-02-06T06:33:04.833Z,74.28
2024-02-06T06:35:32.232Z,75.00
2024-02-06T06:37:59.356Z,74.07
2024-02-06T06:40:26.339Z,74.97
2024-02-06T06:42:54.635Z,76.05
2024-02-06T06:45:22.797Z,76.09
2024-02-06T06:47:51.970Z,76.22
2024-02-06T06:50:23.878Z,77.02
2024-02-06T06:52:53.753Z,76.82
2024-02-06T06:55:21.276Z,77.60
2024-02-06T06:57:48.357Z,77.24
2024-02-06T07:00:45.897Z,76.04
2024-02-06T07:03:13.044Z,77.04
2024-02-06T07:05:42.880Z,76.99
2024-02-06T07:08:10.162Z,76.97
2024-02-06T07:10:37.312Z,77.49
2024-02-06T07:13:05.519Z,76.99
2024-02-06T07:15:32.335Z,75.38
2024-02-06T07:18:00.620Z,75.72
2024-02-06T07:20:28.490Z,76.08
2024-02-06T07:25:46.787Z,75.98
2024-02-06T07:28:14.207Z,77.18
2024-02-06T07:30:42.336Z,76.92
2024-02-06T07:33:11.119Z,75.19
2024-02-06T07:35:38.518Z,74.06
2024-02-06T07:38:08.604Z,74.22
2024-02-06T07:40:37.545Z,74.75
2024-02-06T07:43:05.201Z,73.32
2024-02-06T07:45:35.974Z,74.68
2024-02-06T07:48:05.720Z,75.90
2024-02-06T07:50:33.148Z,75.72
2024-02-06T07:53:02.930Z,74.83
2024-02-06T07:55:30.219Z,74.16
2024-02-06T07:57:57.468Z,73.82
2024-02-06T08:00:24.662Z,73.07
2024-02-06T08:02:54.510Z,71.41
2024-02-06T08:05:21.767Z,72.28
2024-02-06T08:07:49.748Z,72.09
2024-02-06T08:10:17.409Z,70.98
2024-02-06T08:12:44.872Z,70.49
2024-02-06T08:15:16.798Z,70.22
2024-02-06T08:17:44.835Z,69.55
2024-02-06T08:20:15.609Z,69.78
2024-02-06T08:22:46.704Z,69.57
2024-02-06T08:25:13.812Z,69.06
2024-02-06T08:27:41.174Z,68.25
2024-02-06T08:30:09.316Z,67.39
2024-02-06T08:32:36.649Z,66.64
2024-02-06T08:35:04.881Z,65.57
2024-02-06T08:37:32.249Z,62.04
2024-02-06T08:40:03.085Z,63.42
2024-02-06T08:42:30.367Z,59.91
2024-02-06T08:45:00.087Z,60.51
2024-02-06T08:47:28.407Z,58.49
2024-02-06T08:49:56.149Z,56.88
2024-02-06T08:52:23.573Z,56.84
2024-02-06T08:54:53.351Z,55.84
2024-02-06T08:57:20.220Z,54.94
2024-02-06T08:59:47.378Z,55.23
2024-02-06T09:02:16.044Z,53.76
2024-02-06T09:05:07.817Z,54.40
2024-02-06T09:07:37.644Z,53.70
2024-02-06T09:10:04.878Z,54.21
2024-02-06T09:12:35.163Z,55.03
2024-02-06T09:15:03.071Z,54.66
2024-02-06T09:17:31.012Z,55.17
2024-02-06T09:19:58.449Z,56.09
2024-02-06T09:22:25.579Z,56.96
2024-02-06T09:24:55.613Z,55.38
2024-02-06T09:27:23.363Z,53.36
2024-02-06T09:29:53.027Z,53.03
2024-02-06T09:32:22.503Z,51.74
2024-02-06T09:34:50.045Z,53.81
2024-02-06T09:37:20.003Z,54.27
2024-02-06T09:39:48.740Z,53.91
2024-02-06T09:42:16.436Z,52.97
2024-02-06T09:44:46.344Z,53.83
2024-02-06T09:47:15.400Z,54.12
2024-02-06T09:49:43.293Z,54.68
2024-02-06T09:52:10.071Z,53.81
2024-02-06T09:54:39.639Z,53.38
2024-02-06T09:57:06.528Z,52.46
2024-02-06T09:59:33.775Z,53.77
2024-02-06T10:02:03.742Z,52.34
2024-02-06T10:04:32.843Z,50.72
2024-02-06T10:07:00.048Z,52.76
2024-02-06T10:09:29.416Z,54.15
2024-02-06T10:11:56.627Z,53.29
2024-02-06T10:14:26.480Z,52.28
2024-02-06T10:16:53.550Z,50.90
2024-02-06T10:19:20.723Z,50.95
2024-02-06T10:21:53.975Z,50.74
2024-02-06T10:24:23.599Z,51.07
2024-02-06T10:26:59.802Z,51.25
2024-02-06T10:29:30.691Z,51.53
2024-02-06T10:31:58.484Z,50.96
2024-02-06T10:35:11.595Z,49.40
2024-02-06T10:37:40.188Z,49.17
2024-02-06T10:40:11.342Z,49.70
2024-02-06T10:43:12.712Z,50.13
2024-02-06T10:45:32.008Z,48.09
2024-02-06T10:48:01.752Z,49.42
2024-02-06T10:50:29.503Z,48.83
2024-02-06T10:52:59.357Z,48.22
2024-02-06T10:55:27.301Z,47.33
2024-02-06T10:58:07.351Z,47.67
2024-02-06T11:00:42.289Z,48.20
2024-02-06T11:03:11.640Z,46.95
2024-02-06T11:05:58.572Z,46.07
2024-02-06T11:08:44.343Z,45.90
2024-02-06T11:11:15.816Z,47.06
2024-02-06T11:13:49.758Z,46.38
2024-02-06T11:16:23.086Z,46.02
2024-02-06T11:19:04.318Z,47.51
2024-02-06T11:21:38.100Z,48.89
2024-02-06T11:24:05.510Z,49.72
2024-02-06T11:26:32.266Z,48.23
2024-02-06T11:29:00.586Z,48.17
2024-02-06T11:31:28.979Z,47.63
2024-02-06T11:33:55.951Z,46.64
2024-02-06T11:36:28.779Z,47.08
2024-02-06T11:39:05.555Z,48.10
2024-02-06T11:41:35.329Z,48.07
2024-02-06T11:44:15.772Z,49.22
2024-02-06T11:46:51.112Z,49.25
2024-02-06T11:49:25.904Z,49.46
2024-02-06T11:51:53.977Z,48.54
2024-02-06T11:54:22.454Z,48.34
2024-02-06T11:56:50.143Z,49.09
2024-02-06T11:59:21.045Z,49.29
2024-02-06T12:01:48.633Z,48.53
2024-02-06T12:08:32.915Z,49.38
2024-02-06T12:11:04.553Z,51.51
2024-02-06T12:14:10.470Z,52.81
2024-02-06T12:16:37.605Z,51.61
2024-02-06T12:19:04.760Z,50.78
2024-02-06T12:21:43.213Z,49.72
2024-02-06T12:24:10.478Z,49.21
2024-02-06T12:26:42.260Z,47.80
2024-02-06T12:29:15.163Z,47.66
2024-02-06T12:31:44.904Z,48.33
2024-02-06T12:34:15.205Z,47.89
2024-02-06T12:36:42.545Z,47.34
2024-02-06T12:39:10.442Z,48.66
2024-02-06T12:41:37.656Z,49.27
2024-02-06T12:44:10.629Z,47.83
2024-02-06T12:46:44.087Z,49.13
2024-02-06T12:49:12.009Z,48.26
2024-02-06T12:51:41.876Z,47.39
2024-02-06T12:54:11.865Z,47.89
2024-02-06T12:56:39.810Z,48.39
2024-02-06T12:59:16.512Z,48.84
2024-02-06T13:01:53.719Z,48.53
2024-02-06T13:04:34.083Z,47.40
2024-02-06T13:10:01.468Z,49.35
2024-02-06T13:12:28.809Z,49.07
2024-02-06T13:15:19.020Z,48.60
2024-02-06T13:17:47.432Z,48.43
2024-02-06T13:20:16.256Z,48.37
2024-02-06T13:22:48.139Z,49.71
2024-02-06T13:25:15.441Z,48.50
2024-02-06T13:27:42.694Z,49.02
2024-02-06T13:30:12.051Z,48.34
2024-02-06T13:32:44.524Z,48.43
2024-02-06T13:37:55.601Z,47.99
2024-02-06T13:40:23.388Z,49.06
2024-02-06T13:42:50.508Z,49.24
2024-02-06T13:45:18.110Z,47.75
2024-02-06T13:47:47.951Z,48.10
2024-02-06T13:50:15.630Z,49.61
2024-02-06T13:52:55.880Z,50.63
2024-02-06T13:55:25.555Z,51.95
2024-02-06T13:57:55.478Z,50.41
2024-02-06T14:00:26.598Z,49.49
2024-02-06T14:06:38.405Z,48.54
2024-02-06T14:09:05.978Z,49.94
2024-02-06T14:11:35.716Z,50.04
2024-02-06T14:14:04.142Z,49.49
2024-02-06T14:16:31.374Z,50.64
2024-02-06T14:18:58.709Z,50.58
2024-02-06T14:21:26.057Z,50.17
2024-02-06T14:23:53.067Z,50.73
2024-02-06T14:26:20.322Z,49.32
2024-02-06T14:28:47.553Z,52.00
2024-02-06T14:31:19.168Z,52.32
2024-02-06T14:34:28.058Z,51.36
2024-02-06T14:36:56.561Z,51.22
2024-02-06T14:39:24.228Z,51.50
2024-02-06T14:41:52.572Z,50.75
2024-02-06T14:44:20.648Z,50.64
2024-02-06T14:46:47.903Z,49.89
2024-02-06T14:49:15.101Z,48.22
2024-02-06T14:51:44.056Z,47.58
2024-02-06T14:54:11.244Z,48.28
2024-02-06T14:56:43.719Z,49.00
2024-02-06T14:59:12.327Z,49.33
2024-02-06T15:01:44.587Z,48.32
2024-02-06T15:04:16.343Z,48.72
2024-02-06T15:06:49.159Z,47.73
2024-02-06T15:09:17.160Z,49.59
2024-02-06T15:11:47.057Z,50.06
2024-02-06T15:14:15.009Z,49.93
2024-02-06T15:16:42.596Z,49.72
2024-02-06T15:19:10.068Z,49.67
2024-02-06T15:21:37.734Z,49.46
2024-02-06T15:24:07.490Z,49.77
2024-02-06T15:26:34.664Z,51.36
2024-02-06T15:29:19.444Z,52.32
2024-02-06T15:31:52.185Z,54.15
2024-02-06T15:34:20.395Z,53.18
2024-02-06T15:36:52.365Z,54.67
2024-02-06T15:39:25.797Z,54.63
2024-02-06T15:41:53.345Z,55.89
2024-02-06T15:44:20.600Z,55.25
2024-02-06T15:46:47.866Z,54.48
2024-02-06T15:49:17.968Z,54.67
2024-02-06T15:51:49.921Z,54.98
2024-02-06T15:54:17.356Z,55.87
2024-02-06T15:56:45.031Z,56.64
2024-02-06T15:59:12.318Z,56.49
2024-02-06T16:01:45.735Z,58.01
2024-02-06T16:04:14.000Z,58.20
2024-02-06T16:06:43.813Z,58.42
2024-02-06T16:09:11.289Z,59.59
2024-02-06T16:11:51.366Z,60.97
2024-02-06T16:14:20.093Z,61.73
2024-02-06T16:16:47.042Z,61.10
2024-02-06T16:19:22.499Z,59.65
2024-02-06T16:21:58.353Z,60.14
2024-02-06T16:24:27.527Z,59.77
2024-02-06T16:26:54.799Z,58.90
2024-02-06T16:29:26.809Z,61.11
2024-02-06T16:31:54.282Z,61.40
2024-02-06T16:34:37.264Z,62.24
2024-02-06T16:37:07.884Z,61.84
2024-02-06T16:39:35.473Z,61.48
2024-02-06T16:42:02.668Z,62.52
2024-02-06T16:44:32.287Z,64.45
2024-02-06T16:46:59.392Z,65.10
2024-02-06T16:49:26.891Z,65.87
2024-02-06T16:51:56.084Z,64.90
2024-02-06T16:54:24.293Z,67.41
2024-02-06T16:56:51.160Z,68.54
2024-02-06T16:59:18.651Z,67.80
2024-02-06T17:01:46.357Z,68.62
2024-02-06T17:04:13.586Z,67.88
2024-02-06T17:06:43.852Z,69.02
2024-02-06T17:09:11.594Z,69.07
2024-02-06T17:11:48.034Z,68.90
2024-02-06T17:14:34.704Z,69.14
2024-02-06T17:17:02.588Z,67.67
2024-02-06T17:19:34.786Z,69.41
2024-02-06T17:22:02.082Z,69.12
2024-02-06T17:24:34.301Z,68.09
2024-02-06T17:27:01.602Z,67.57
2024-02-06T17:29:29.853Z,67.87
2024-02-06T17:32:03.142Z,68.05
2024-02-06T17:34:30.476Z,67.84
2024-02-06T17:37:00.793Z,69.83
2024-02-06T17:39:27.691Z,71.30
2024-02-06T17:41:54.893Z,71.07
2024-02-06T17:44:22.796Z,70.92
2024-02-06T17:46:50.418Z,71.54
2024-02-06T17:49:22.699Z,72.70
2024-02-06T17:51:56.731Z,73.45
2024-02-06T17:54:27.768Z,74.96
2024-02-06T17:56:55.635Z,75.15
2024-02-06T17:59:22.795Z,74.68
2024-02-06T18:01:50.540Z,75.34
2024-02-06T18:04:17.823Z,75.03
2024-02-06T18:06:45.306Z,74.43
2024-02-06T18:09:18.351Z,73.84
2024-02-06T18:11:45.611Z,73.77
2024-02-06T18:14:13.404Z,74.41
2024-02-06T18:16:40.696Z,75.82
2024-02-06T18:19:07.890Z,76.32
2024-02-06T18:21:36.490Z,76.59
2024-02-06T18:24:09.579Z,78.72
2024-02-06T18:26:41.262Z,78.61
2024-02-06T18:29:09.175Z,79.16
2024-02-06T18:31:39.086Z,78.96
2024-02-06T18:34:11.231Z,79.64
2024-02-06T18:36:41.163Z,79.45
2024-02-06T18:39:09.088Z,76.78
2024-02-06T18:41:38.966Z,77.33
2024-02-06T18:44:07.073Z,79.01
2024-02-06T18:46:40.861Z,81.75
2024-02-06T18:49:07.880Z,81.34
2024-02-06T18:51:39.620Z,78.98
2024-02-06T18:54:07.504Z,78.34
2024-02-06T18:56:34.873Z,78.27
2024-02-06T18:59:01.706Z,77.51
2024-02-06T19:01:30.180Z,76.96
2024-02-06T19:04:00.017Z,77.89
2024-02-06T19:06:27.333Z,78.24
2024-02-06T19:08:57.146Z,77.75
2024-02-06T19:11:24.433Z,77.77
2024-02-06T19:13:52.253Z,77.65
2024-02-06T19:16:21.919Z,78.18
2024-02-06T19:18:49.288Z,77.55
2024-02-06T19:21:16.588Z,77.30
2024-02-06T19:23:43.641Z,77.19
2024-02-06T19:26:13.298Z,77.17
2024-02-06T19:28:40.843Z,77.82
2024-02-06T19:31:08.004Z,76.98
2024-02-06T19:33:39.407Z,77.58
2024-02-06T19:36:06.531Z,78.00
2024-02-06T19:38:33.554Z,78.98
2024-02-06T19:41:03.341Z,79.74
2024-02-06T19:43:33.525Z,79.65
2024-02-06T19:46:00.784Z,80.25
2024-02-06T19:48:34.417Z,81.02
2024-02-06T19:51:05.263Z,81.62
2024-02-06T19:53:34.918Z,81.54
2024-02-06T19:56:02.092Z,80.65
2024-02-06T19:58:29.170Z,81.53
2024-02-06T20:00:56.410Z,80.31
2024-02-06T20:03:23.630Z,81.03
2024-02-06T20:05:51.073Z,79.67
2024-02-06T20:08:18.558Z,82.07
2024-02-06T20:10:45.783Z,81.86
2024-02-06T20:13:13.343Z,82.33
2024-02-06T20:15:42.650Z,82.27
2024-02-06T20:18:17.471Z,81.83
2024-02-06T20:20:47.035Z,82.97
2024-02-06T20:23:14.486Z,83.57
2024-02-06T20:25:44.345Z,84.04
2024-02-06T20:28:11.561Z,83.46
2024-02-06T20:30:39.554Z,82.28
2024-02-06T20:33:08.225Z,82.49
2024-02-06T20:35:38.524Z,82.64
2024-02-06T20:38:05.869Z,82.37
2024-02-06T20:40:32.954Z,83.55
2024-02-06T20:43:00.684Z,84.08
2024-02-06T20:45:28.734Z,84.28
2024-02-06T20:51:35.328Z,85.07
2024-02-06T20:54:04.925Z,84.87
2024-02-06T20:56:32.199Z,85.37
2024-02-06T20:59:01.857Z,85.71
2024-02-06T21:01:29.019Z,86.27
2024-02-06T21:03:57.381Z,85.96
2024-02-06T21:06:24.824Z,86.56
2024-02-06T21:08:51.905Z,85.96
2024-02-06T21:11:19.651Z,85.69
2024-02-06T21:14:27.198Z,86.37
2024-02-06T21:16:54.772Z,85.72
2024-02-06T21:19:22.322Z,86.45
2024-02-06T21:21:49.608Z,85.22
2024-02-06T21:24:16.658Z,86.17
2024-02-06T21:26:43.941Z,87.10
2024-02-06T21:29:13.175Z,86.67
2024-02-06T21:31:40.721Z,85.73
2024-02-06T21:34:09.206Z,85.43
2024-02-06T21:36:42.469Z,85.67
2024-02-06T21:39:09.622Z,85.34
2024-02-06T21:41:36.819Z,86.40
2024-02-06T21:44:04.061Z,86.34
2024-02-06T21:46:37.101Z,86.84
2024-02-06T21:49:30.007Z,86.71
2024-02-06T21:51:57.230Z,86.33
2024-02-06T21:54:26.820Z,87.76
2024-02-06T21:56:54.064Z,87.13
2024-02-06T21:59:21.252Z,86.80
2024-02-06T22:01:48.883Z,86.66
2024-02-06T22:04:18.690Z,87.96
2024-02-06T22:06:51.031Z,88.64
2024-02-06T22:12:42.725Z,88.39
2024-02-06T22:15:09.742Z,89.00
2024-02-06T22:17:37.881Z,88.63
2024-02-06T22:20:06.867Z,88.41
2024-02-06T22:22:34.171Z,86.38
2024-02-06T22:25:01.550Z,87.25
2024-02-06T22:27:28.895Z,86.58
2024-02-06T22:29:57.148Z,85.40
2024-02-06T22:32:24.360Z,87.25
2024-02-06T22:34:51.542Z,87.07
2024-02-06T22:37:18.764Z,88.59
2024-02-06T22:39:46.934Z,88.75
2024-02-06T22:42:13.999Z,90.44
2024-02-06T22:44:41.955Z,91.66
2024-02-06T22:47:09.457Z,89.25
2024-02-06T22:49:39.100Z,87.14
2024-02-06T22:52:12.430Z,90.48
2024-02-06T22:54:39.976Z,88.90
2024-02-06T22:57:07.107Z,90.43
2024-02-06T22:59:35.003Z,89.46
2024-02-06T23:02:02.011Z,93.32
2024-02-06T23:04:34.011Z,94.81
2024-02-06T23:07:01.172Z,93.64
2024-02-06T23:09:28.078Z,93.27
2024-02-06T23:11:55.198Z,92.95
2024-02-06T23:14:22.394Z,90.80
2024-02-06T23:16:50.847Z,92.95
2024-02-06T23:19:20.734Z,92.97
2024-02-06T23:21:47.770Z,91.97
2024-02-06T23:24:14.883Z,89.81
2024-02-06T23:26:42.370Z,88.53
2024-02-06T23:29:10.264Z,87.98
2024-02-06T23:31:37.434Z,90.15
2024-02-06T23:34:04.529Z,89.24
2024-02-06T23:36:31.577Z,89.07
2024-02-06T23:39:10.216Z,86.99
2024-02-06T23:41:48.312Z,86.99
2024-02-06T23:44:15.393Z,85.58
2024-02-06T23:46:45.889Z,89.15
2024-02-06T23:49:14.324Z,88.19
2024-02-06T23:51:46.484Z,84.88
2024-02-06T23:54:13.813Z,84.25
2024-02-06T23:56:41.009Z,85.79
2024-02-06T23:59:08.234Z,87.73
